Time;durP1;ratioP1;P1;durP2;ratioP2;P2;SDS_P1;SDS_P2;PMS_P1;PMS_P2;Temp;Humidity;BMP_temperature;BMP_pressure;BME280_temperature;BME280_humidity;BME280_pressure;Samples;Min_cycle;Max_cycle;Signal;HPM_P1;HPM_P2
2022/08/13 00:02:16;;;;;;;;;;;;;;;;;;5060170;28;19919;-77
2022/08/13 00:04:46;;;;;;;;;;;;;;;;;;5076867;28;20305;-77
2022/08/13 00:07:12;;;;;;;;;;;;;;;;;;5077554;28;19912;-77
2022/08/13 00:09:38;;;;;;;;;;;;;;;;;;5076537;28;19912;-77
2022/08/13 00:14:48;;;;;;;;;;;;;;;;;;5079378;28;20345;-77
2022/08/13 00:17:13;;;;;;;;;;;;;;;;;;5094456;28;19943;-77
2022/08/13 00:19:39;;;;;;;;;;;;;;;;;;5076112;28;20366;-77
2022/08/13 00:22:05;;;;;;;;;;;;;;;;;;5076233;28;19951;-77
2022/08/13 00:24:30;;;;;;;;;;;;;;;;;;5059502;28;19995;-77
2022/08/13 00:26:59;;;;;;;;;;;;;;;;;;5076470;28;19916;-77
2022/08/13 00:29:25;;;;;;;;;;;;;;;;;;5076125;28;19916;-77
2022/08/13 00:31:51;;;;;;;;;;;;;;;;;;5059370;28;20368;-77
2022/08/13 00:34:17;;;;;;;;;;;;;;;;;;5094508;28;20255;-77
2022/08/13 00:36:42;;;;;;;;;;;;;;;;;;5076277;28;19966;-78
2022/08/13 00:39:08;;;;;;;;;;;;;;;;;;5075902;28;19920;-77
2022/08/13 00:41:38;;;;;;;;;;;;;;;;;;5094375;28;19939;-77
2022/08/13 00:44:05;;;;;;;;;;;;;;;;;;5076491;28;20273;-77
2022/08/13 00:46:31;;;;;;;;;;;;;;;;;;5059594;28;19958;-78
2022/08/13 00:48:56;;;;;;;;;;;;;;;;;;5059115;28;19912;-77
2022/08/13 00:51:22;;;;;;;;;;;;;;;;;;5058962;28;19951;-77
2022/08/13 00:53:48;;;;;;;;;;;;;;;;;;5093876;28;19916;-77
2022/08/13 00:56:13;;;;;;;;;;;;;;;;;;5059040;28;20022;-77
2022/08/13 00:58:39;;;;;;;;;;;;;;;;;;5093939;28;19920;-76
2022/08/13 01:01:05;;;;;;;;;;;;;;;;;;5075726;28;19916;-77
2022/08/13 01:03:31;;;;;;;;;;;;;;;;;;5075990;28;20354;-76
2022/08/13 01:05:59;;;;;;;;;;;;;;;;;;5075901;28;20007;-77
2022/08/13 01:08:25;;;;;;;;;;;;;;;;;;5075417;28;20367;-77
2022/08/13 01:10:50;;;;;;;;;;;;;;;;;;5058905;28;19919;-79
2022/08/13 01:13:16;;;;;;;;;;;;;;;;;;5058774;28;19912;-79
2022/08/13 01:15:42;;;;;;;;;;;;;;;;;;5058770;28;19919;-78
2022/08/13 01:18:08;;;;;;;;;;;;;;;;;;5075589;28;20006;-78
2022/08/13 01:20:36;;;;;;;;;;;;;;;;;;5075651;28;19916;-77
2022/08/13 01:23:03;;;;;;;;;;;;;;;;;;5075489;28;19912;-78
2022/08/13 01:25:30;;;;;;;;;;;;;;;;;;5076051;28;20275;-78
2022/08/13 01:27:55;;;;;;;;;;;;;;;;;;5076104;28;19912;-78
2022/08/13 01:30:21;;;;;;;;;;;;;;;;;;5077791;28;19920;-79
2022/08/13 01:32:47;;;;;;;;;;;;;;;;;;5079747;28;19916;-77
2022/08/13 01:35:13;;;;;;;;;;;;;;;;;;5062708;28;19919;-80
2022/08/13 01:37:38;;;;;;;;;;;;;;;;;;5062734;28;19912;-78
2022/08/13 01:40:04;;;;;;;;;;;;;;;;;;5079836;28;19920;-79
2022/08/13 01:42:30;;;;;;;;;;;;;;;;;;5079862;28;19912;-79
2022/08/13 01:44:55;;;;;;;;;;;;;;;;;;5079233;28;20346;-79
2022/08/13 01:52:50;;;;;;;;;;;;;;;;;;5082310;28;19961;-79
2022/08/13 01:55:17;;;;;;;;;;;;;;;;;;5062435;28;20274;-78
2022/08/13 01:57:43;;;;;;;;;;;;;;;;;;5079431;28;20282;-79
2022/08/13 02:00:13;;;;;;;;;;;;;;;;;;5097379;28;19926;-78
2022/08/13 02:02:39;;;;;;;;;;;;;;;;;;5079783;28;20214;-79
2022/08/13 02:05:05;;;;;;;;;;;;;;;;;;5079248;28;20015;-79
2022/08/13 02:07:30;;;;;;;;;;;;;;;;;;5062215;28;19916;-79
2022/08/13 02:09:55;;;;;;;;;;;;;;;;;;5097034;28;20263;-79
2022/08/13 02:12:21;;;;;;;;;;;;;;;;;;5062022;28;19961;-78
2022/08/13 02:14:46;;;;;;;;;;;;;;;;;;5079057;28;19920;-78
2022/08/13 02:17:27;;;;;;;;;;;;;;;;;;5078589;28;19912;-78
2022/08/13 02:19:56;;;;;;;;;;;;;;;;;;5080996;28;19916;-78
2022/08/13 02:22:22;;;;;;;;;;;;;;;;;;5097012;28;20014;-78
2022/08/13 02:24:48;;;;;;;;;;;;;;;;;;5078676;28;19912;-78
2022/08/13 02:27:14;;;;;;;;;;;;;;;;;;5061858;28;19912;-78
2022/08/13 02:29:39;;;;;;;;;;;;;;;;;;5078387;28;19923;-79
2022/08/13 02:32:05;;;;;;;;;;;;;;;;;;5078490;28;19915;-78
2022/08/13 02:34:31;;;;;;;;;;;;;;;;;;5061781;28;19919;-78
2022/08/13 02:36:58;;;;;;;;;;;;;;;;;;5096522;28;19917;-78
2022/08/13 02:39:24;;;;;;;;;;;;;;;;;;5079003;28;19920;-78
2022/08/13 02:41:50;;;;;;;;;;;;;;;;;;5077190;28;19916;-78
2022/08/13 02:44:15;;;;;;;;;;;;;;;;;;5096370;28;19924;-78
2022/08/13 02:46:42;;;;;;;;;;;;;;;;;;5096565;28;20370;-78
2022/08/13 02:49:07;;;;;;;;;;;;;;;;;;5061467;28;19916;-78
2022/08/13 02:51:33;;;;;;;;;;;;;;;;;;5095883;28;20007;-78
2022/08/13 02:54:01;;;;;;;;;;;;;;;;;;5077929;28;19920;-79
2022/08/13 02:56:27;;;;;;;;;;;;;;;;;;5061633;28;19932;-79
2022/08/13 02:58:53;;;;;;;;;;;;;;;;;;5061329;28;19995;-79
2022/08/13 03:01:18;;;;;;;;;;;;;;;;;;5061078;28;19920;-79
2022/08/13 03:03:43;;;;;;;;;;;;;;;;;;5061097;28;20278;-79
2022/08/13 03:06:08;;;;;;;;;;;;;;;;;;5077898;28;19966;-78
2022/08/13 03:08:34;;;;;;;;;;;;;;;;;;5077606;28;20018;-78
2022/08/13 03:11:00;;;;;;;;;;;;;;;;;;5061018;28;20055;-80
2022/08/13 03:13:30;;;;;;;;;;;;;;;;;;5061002;28;19920;-79
2022/08/13 03:15:56;;;;;;;;;;;;;;;;;;5060925;28;20348;-78
2022/08/13 03:18:22;;;;;;;;;;;;;;;;;;5077660;28;19969;-78
2022/08/13 03:20:49;;;;;;;;;;;;;;;;;;5077696;28;19916;-79
2022/08/13 03:23:14;;;;;;;;;;;;;;;;;;5060920;28;20379;-78
2022/08/13 03:25:39;;;;;;;;;;;;;;;;;;5077436;28;19912;-81
2022/08/13 03:28:05;;;;;;;;;;;;;;;;;;5077453;28;19916;-78
2022/08/13 03:30:34;;;;;;;;;;;;;;;;;;5060569;28;19952;-78
2022/08/13 03:33:06;;;;;;;;;;;;;;;;;;5061027;28;19920;-78
2022/08/13 03:35:32;;;;;;;;;;;;;;;;;;5095650;28;19916;-80
2022/08/13 03:37:57;;;;;;;;;;;;;;;;;;5060637;28;19995;-80
2022/08/13 03:40:24;;;;;;;;;;;;;;;;;;5076982;28;19928;-80
2022/08/13 03:42:50;;;;;;;;;;;;;;;;;;5077486;28;20453;-78
2022/08/13 03:45:16;;;;;;;;;;;;;;;;;;5095095;28;19963;-78
2022/08/13 03:47:41;;;;;;;;;;;;;;;;;;5060598;28;19912;-78
2022/08/13 03:50:07;;;;;;;;;;;;;;;;;;5077183;28;19934;-78
2022/08/13 03:52:33;;;;;;;;;;;;;;;;;;5076618;28;20413;-78
2022/08/13 03:54:59;;;;;;;;;;;;;;;;;;5077093;28;19970;-78
2022/08/13 03:57:24;;;;;;;;;;;;;;;;;;5076999;28;19916;-78
2022/08/13 03:59:50;;;;;;;;;;;;;;;;;;5095482;28;19927;-78
2022/08/13 04:02:16;;;;;;;;;;;;;;;;;;5077250;28;19920;-78
2022/08/13 04:04:46;;;;;;;;;;;;;;;;;;5077377;28;19948;-78
2022/08/13 04:07:15;;;;;;;;;;;;;;;;;;5094563;28;20366;-78
2022/08/13 04:09:41;;;;;;;;;;;;;;;;;;5076466;28;20004;-79
2022/08/13 04:12:10;;;;;;;;;;;;;;;;;;5076865;28;19912;-78
2022/08/13 04:14:35;;;;;;;;;;;;;;;;;;5077207;28;19973;-79
2022/08/13 04:17:00;;;;;;;;;;;;;;;;;;5076614;28;19912;-79
2022/08/13 04:19:26;;;;;;;;;;;;;;;;;;5076549;28;19920;-79
2022/08/13 04:21:52;;;;;;;;;;;;;;;;;;5059629;28;19961;-80
2022/08/13 04:24:18;;;;;;;;;;;;;;;;;;5076279;28;20374;-80
2022/08/13 04:26:44;;;;;;;;;;;;;;;;;;5094640;28;19912;-80
2022/08/13 04:29:11;;;;;;;;;;;;;;;;;;5059352;28;19913;-80
2022/08/13 04:31:36;;;;;;;;;;;;;;;;;;5094368;28;20394;-80
2022/08/13 04:34:02;;;;;;;;;;;;;;;;;;5076497;28;19913;-79
2022/08/13 04:36:27;;;;;;;;;;;;;;;;;;5076354;28;19920;-79
2022/08/13 04:38:52;;;;;;;;;;;;;;;;;;5076420;28;20268;-80
2022/08/13 04:41:18;;;;;;;;;;;;;;;;;;5059595;28;19920;-77
2022/08/13 04:43:43;;;;;;;;;;;;;;;;;;5076259;28;20282;-80
2022/08/13 04:46:08;;;;;;;;;;;;;;;;;;5094204;28;19978;-80
2022/08/13 04:48:34;;;;;;;;;;;;;;;;;;5094655;28;20274;-80
2022/08/13 04:51:00;;;;;;;;;;;;;;;;;;5094641;28;19912;-80
2022/08/13 04:53:32;;;;;;;;;;;;;;;;;;5059471;28;19920;-80
2022/08/13 04:55:58;;;;;;;;;;;;;;;;;;5076730;28;19916;-80
2022/08/13 04:58:23;;;;;;;;;;;;;;;;;;5059418;28;19912;-80
2022/08/13 05:00:50;;;;;;;;;;;;;;;;;;5094355;28;19923;-80
2022/08/13 05:03:20;;;;;;;;;;;;;;;;;;5076400;28;20336;-80
2022/08/13 05:05:46;;;;;;;;;;;;;;;;;;5075507;28;19961;-80
2022/08/13 05:08:11;;;;;;;;;;;;;;;;;;5059237;28;20274;-80
2022/08/13 05:10:40;;;;;;;;;;;;;;;;;;5076439;28;19920;-80
2022/08/13 05:13:22;;;;;;;;;;;;;;;;;;5059490;28;20464;-80
2022/08/13 05:15:47;;;;;;;;;;;;;;;;;;5076305;28;19916;-80
2022/08/13 05:18:13;;;;;;;;;;;;;;;;;;5059240;28;19957;-79
2022/08/13 05:20:39;;;;;;;;;;;;;;;;;;5094483;28;20378;-80
2022/08/13 05:23:12;;;;;;;;;;;;;;;;;;5059329;28;19912;-80
2022/08/13 05:25:37;;;;;;;;;;;;;;;;;;5059315;28;19931;-80
2022/08/13 05:28:03;;;;;;;;;;;;;;;;;;5075925;28;19916;-80
2022/08/13 05:30:28;;;;;;;;;;;;;;;;;;5075726;28;19943;-80
2022/08/13 05:32:57;;;;;;;;;;;;;;;;;;5076175;28;19912;-80
2022/08/13 05:35:23;;;;;;;;;;;;;;;;;;5076422;28;20324;-79
2022/08/13 05:37:49;;;;;;;;;;;;;;;;;;5076062;28;19923;-79
2022/08/13 05:40:14;;;;;;;;;;;;;;;;;;5093701;28;19920;-79
2022/08/13 05:42:39;;;;;;;;;;;;;;;;;;5058995;28;19961;-79
2022/08/13 05:45:08;;;;;;;;;;;;;;;;;;5075521;28;19971;-80
2022/08/13 05:47:36;;;;;;;;;;;;;;;;;;5075653;28;19912;-80
2022/08/13 05:50:08;;;;;;;;;;;;;;;;;;5075639;28;19912;-79
2022/08/13 05:52:34;;;;;;;;;;;;;;;;;;5076729;28;19912;-80
2022/08/13 05:55:00;;;;;;;;;;;;;;;;;;5075841;28;19912;-79
2022/08/13 05:57:25;;;;;;;;;;;;;;;;;;5093717;28;19916;-79
2022/08/13 06:05:18;;;;;;;;;;;;;;;;;;5078615;28;20351;-79
2022/08/13 06:07:44;;;;;;;;;;;;;;;;;;5075666;28;19962;-79
2022/08/13 06:10:09;;;;;;;;;;;;;;;;;;5075507;28;19916;-79
2022/08/13 06:12:36;;;;;;;;;;;;;;;;;;5075110;28;19924;-79
2022/08/13 06:15:01;;;;;;;;;;;;;;;;;;5075472;28;19928;-79
2022/08/13 06:17:27;;;;;;;;;;;;;;;;;;5079158;28;19916;-79
2022/08/13 06:19:52;;;;;;;;;;;;;;;;;;5079304;28;19927;-79
2022/08/13 06:22:19;;;;;;;;;;;;;;;;;;5097473;28;20007;-83
2022/08/13 06:24:47;;;;;;;;;;;;;;;;;;5079388;28;19919;-82
2022/08/13 06:27:12;;;;;;;;;;;;;;;;;;5079438;28;19947;-81
2022/08/13 06:29:40;;;;;;;;;;;;;;;;;;5062174;28;19912;-83
2022/08/13 06:32:06;;;;;;;;;;;;;;;;;;5097158;28;19917;-78
2022/08/13 06:34:34;;;;;;;;;;;;;;;;;;5078937;28;19919;-78
2022/08/13 06:37:00;;;;;;;;;;;;;;;;;;5079293;28;20059;-79
2022/08/13 06:39:25;;;;;;;;;;;;;;;;;;5062024;28;19924;-78
2022/08/13 06:41:51;;;;;;;;;;;;;;;;;;5078952;28;19916;-77
2022/08/13 06:44:16;;;;;;;;;;;;;;;;;;5096551;28;19976;-78
2022/08/13 06:46:41;;;;;;;;;;;;;;;;;;5096996;28;19923;-77
2022/08/13 06:49:06;;;;;;;;;;;;;;;;;;5079303;28;20270;-76
2022/08/13 06:51:32;;;;;;;;;;;;;;;;;;5078826;28;19912;-78
2022/08/13 06:53:57;;;;;;;;;;;;;;;;;;5096926;28;19912;-78
2022/08/13 06:56:26;;;;;;;;;;;;;;;;;;5096650;28;20301;-78
2022/08/13 06:58:52;;;;;;;;;;;;;;;;;;5078763;28;19927;-77
2022/08/13 07:01:19;;;;;;;;;;;;;;;;;;5096681;28;19924;-76
2022/08/13 07:03:45;;;;;;;;;;;;;;;;;;5078735;28;19912;-79
2022/08/13 07:06:17;;;;;;;;;;;;;;;;;;5078529;28;19912;-78
2022/08/13 07:08:43;;;;;;;;;;;;;;;;;;5078134;28;19965;-79
2022/08/13 07:11:24;;;;;;;;;;;;;;;;;;5061476;28;19916;-78
2022/08/13 07:13:56;;;;;;;;;;;;;;;;;;5080314;28;19924;-77
2022/08/13 07:16:22;;;;;;;;;;;;;;;;;;5061327;28;19916;-77
2022/08/13 07:18:49;;;;;;;;;;;;;;;;;;5096394;28;19920;-77
2022/08/13 07:21:17;;;;;;;;;;;;;;;;;;5078165;28;20397;-78
2022/08/13 07:23:43;;;;;;;;;;;;;;;;;;5061301;28;19965;-78
2022/08/13 07:26:09;;;;;;;;;;;;;;;;;;5095880;28;19924;-78
2022/08/13 07:28:34;;;;;;;;;;;;;;;;;;5077463;28;19912;-78
2022/08/13 07:31:00;;;;;;;;;;;;;;;;;;5096437;28;19923;-78
2022/08/13 07:33:25;;;;;;;;;;;;;;;;;;5096025;28;19916;-78
2022/08/13 07:35:51;;;;;;;;;;;;;;;;;;5078020;28;19930;-78
2022/08/13 07:38:16;;;;;;;;;;;;;;;;;;5061173;28;19998;-78
2022/08/13 07:40:42;;;;;;;;;;;;;;;;;;5077877;28;19920;-78
2022/08/13 07:43:07;;;;;;;;;;;;;;;;;;5077850;28;20345;-78
2022/08/13 07:45:32;;;;;;;;;;;;;;;;;;5077515;28;20036;-78
2022/08/13 07:47:58;;;;;;;;;;;;;;;;;;5077439;28;20006;-78
2022/08/13 07:50:23;;;;;;;;;;;;;;;;;;5077620;28;20309;-78
2022/08/13 07:52:55;;;;;;;;;;;;;;;;;;5077666;28;19916;-79
2022/08/13 07:55:22;;;;;;;;;;;;;;;;;;5078728;28;20006;-78
2022/08/13 07:57:48;;;;;;;;;;;;;;;;;;5077411;28;20378;-78
2022/08/13 08:00:21;;;;;;;;;;;;;;;;;;5077370;28;19916;-78
2022/08/13 08:02:48;;;;;;;;;;;;;;;;;;5078854;28;19938;-77
2022/08/13 08:05:14;;;;;;;;;;;;;;;;;;5060627;28;20006;-77
2022/08/13 08:07:39;;;;;;;;;;;;;;;;;;5076954;28;20045;-77
2022/08/13 08:10:06;;;;;;;;;;;;;;;;;;5076927;28;19923;-76
2022/08/13 08:12:35;;;;;;;;;;;;;;;;;;5077306;28;19916;-77
2022/08/13 08:15:00;;;;;;;;;;;;;;;;;;5096066;28;19951;-77
2022/08/13 08:17:27;;;;;;;;;;;;;;;;;;5077232;28;19996;-77
2022/08/13 08:19:52;;;;;;;;;;;;;;;;;;5076682;28;20384;-77
2022/08/13 08:22:18;;;;;;;;;;;;;;;;;;5076709;28;19916;-77
2022/08/13 08:24:48;;;;;;;;;;;;;;;;;;5076744;28;19918;-77
2022/08/13 08:27:15;;;;;;;;;;;;;;;;;;5077499;28;19919;-77
2022/08/13 08:29:41;;;;;;;;;;;;;;;;;;5077286;28;19926;-77
2022/08/13 08:32:08;;;;;;;;;;;;;;;;;;5077042;28;19916;-78
2022/08/13 08:34:33;;;;;;;;;;;;;;;;;;5060920;28;20327;-77
2022/08/13 08:36:59;;;;;;;;;;;;;;;;;;5076544;28;19951;-77
2022/08/13 08:44:52;;;;;;;;;;;;;;;;;;5078945;28;19931;-77
2022/08/13 08:47:17;;;;;;;;;;;;;;;;;;5076323;28;19916;-77
2022/08/13 08:49:43;;;;;;;;;;;;;;;;;;5059439;28;19954;-77
2022/08/13 08:52:09;;;;;;;;;;;;;;;;;;5059471;28;19916;-77
2022/08/13 08:54:34;;;;;;;;;;;;;;;;;;5094312;28;19916;-77
2022/08/13 08:56:59;;;;;;;;;;;;;;;;;;5059376;28;20371;-77
2022/08/13 08:59:26;;;;;;;;;;;;;;;;;;5059298;28;20009;-77
2022/08/13 09:01:52;;;;;;;;;;;;;;;;;;5076477;28;19912;-77
2022/08/13 09:04:20;;;;;;;;;;;;;;;;;;5076407;28;19969;-77
2022/08/13 09:06:45;;;;;;;;;;;;;;;;;;5076710;28;19961;-77
2022/08/13 09:09:13;;;;;;;;;;;;;;;;;;5075932;28;20019;-76
2022/08/13 09:11:38;;;;;;;;;;;;;;;;;;5094131;28;20486;-77
2022/08/13 09:14:08;;;;;;;;;;;;;;;;;;5076239;28;19926;-77
2022/08/13 09:16:39;;;;;;;;;;;;;;;;;;5059601;28;19916;-78
2022/08/13 09:19:08;;;;;;;;;;;;;;;;;;5076784;28;19919;-77
2022/08/13 09:21:44;;;;;;;;;;;;;;;;;;5076021;28;19916;-77
2022/08/13 09:24:10;;;;;;;;;;;;;;;;;;5076820;28;19916;-78
2022/08/13 09:26:37;;;;;;;;;;;;;;;;;;5077197;28;20279;-77
2022/08/13 09:29:02;;;;;;;;;;;;;;;;;;5094866;28;19912;-77
2022/08/13 09:31:29;;;;;;;;;;;;;;;;;;5095271;28;19916;-77
2022/08/13 09:33:54;;;;;;;;;;;;;;;;;;5095760;28;19916;-76
2022/08/13 09:36:20;;;;;;;;;;;;;;;;;;5077049;28;20302;-77
2022/08/13 09:38:48;;;;;;;;;;;;;;;;;;5077751;28;19944;-77
2022/08/13 09:41:20;;;;;;;;;;;;;;;;;;5077137;28;19924;-77
2022/08/13 09:43:47;;;;;;;;;;;;;;;;;;5095068;28;19967;-77
2022/08/13 09:46:13;;;;;;;;;;;;;;;;;;5077198;28;20007;-77
2022/08/13 09:48:38;;;;;;;;;;;;;;;;;;5094384;28;19917;-76
2022/08/13 09:51:05;;;;;;;;;;;;;;;;;;5096451;28;19923;-77
2022/08/13 09:53:30;;;;;;;;;;;;;;;;;;5080426;28;19916;-77
2022/08/13 09:55:56;;;;;;;;;;;;;;;;;;5098813;28;19970;-77
2022/08/13 09:58:22;;;;;;;;;;;;;;;;;;5098879;28;19969;-77
2022/08/13 10:00:48;;;;;;;;;;;;;;;;;;5080394;28;19920;-77
2022/08/13 10:03:17;;;;;;;;;;;;;;;;;;5081141;28;19980;-77
2022/08/13 10:05:44;;;;;;;;;;;;;;;;;;5098713;28;19916;-77
2022/08/13 10:08:14;;;;;;;;;;;;;;;;;;5098111;28;20298;-79
2022/08/13 10:10:39;;;;;;;;;;;;;;;;;;5081751;28;19916;-78
2022/08/13 10:13:05;;;;;;;;;;;;;;;;;;5098692;28;20413;-78
2022/08/13 10:15:30;;;;;;;;;;;;;;;;;;5099236;28;20421;-77
2022/08/13 10:17:56;;;;;;;;;;;;;;;;;;5080950;28;19920;-78
2022/08/13 10:20:24;;;;;;;;;;;;;;;;;;5081073;28;19916;-78
2022/08/13 10:22:49;;;;;;;;;;;;;;;;;;5082276;28;19916;-78
2022/08/13 10:25:16;;;;;;;;;;;;;;;;;;5082096;28;19999;-78
2022/08/13 10:27:41;;;;;;;;;;;;;;;;;;5064258;28;19912;-77
2022/08/13 10:30:07;;;;;;;;;;;;;;;;;;5081668;28;19920;-77
2022/08/13 10:32:32;;;;;;;;;;;;;;;;;;5080823;28;19912;-78
2022/08/13 10:35:01;;;;;;;;;;;;;;;;;;5064143;28;20013;-78
2022/08/13 10:37:28;;;;;;;;;;;;;;;;;;5063728;28;20363;-78
2022/08/13 10:39:54;;;;;;;;;;;;;;;;;;5079720;28;19916;-77
2022/08/13 10:42:19;;;;;;;;;;;;;;;;;;5079504;28;20066;-78
2022/08/13 10:44:44;;;;;;;;;;;;;;;;;;5079651;28;20318;-77
2022/08/13 10:47:11;;;;;;;;;;;;;;;;;;5079916;28;19965;-78
2022/08/13 10:49:36;;;;;;;;;;;;;;;;;;5098089;28;20315;-78
2022/08/13 10:52:01;;;;;;;;;;;;;;;;;;5098525;28;19956;-78
2022/08/13 10:54:27;;;;;;;;;;;;;;;;;;5080367;28;20394;-78
2022/08/13 10:56:53;;;;;;;;;;;;;;;;;;5080708;28;19912;-78
2022/08/13 10:59:20;;;;;;;;;;;;;;;;;;5062906;28;19924;-79
2022/08/13 11:01:50;;;;;;;;;;;;;;;;;;5065712;28;20376;-77
2022/08/13 11:04:25;;;;;;;;;;;;;;;;;;5043604;28;19923;-79
2022/08/13 11:06:50;;;;;;;;;;;;;;;;;;5044224;28;19924;-80
2022/08/13 11:09:16;;;;;;;;;;;;;;;;;;5077770;28;19908;-77
2022/08/13 11:11:42;;;;;;;;;;;;;;;;;;5059446;28;19917;-77
2022/08/13 11:14:07;;;;;;;;;;;;;;;;;;5059634;28;20241;-77
2022/08/13 11:18:58;;;;;;;;;;;;;;;;;;5077774;28;19939;-78
2022/08/13 11:21:24;;;;;;;;;;;;;;;;;;5059313;28;19960;-76
2022/08/13 11:23:53;;;;;;;;;;;;;;;;;;5042541;28;19912;-77
2022/08/13 11:26:19;;;;;;;;;;;;;;;;;;5059079;28;20367;-77
2022/08/13 11:28:44;;;;;;;;;;;;;;;;;;5059993;28;19917;-77
2022/08/13 11:31:10;;;;;;;;;;;;;;;;;;5042684;28;19912;-77
2022/08/13 11:33:35;;;;;;;;;;;;;;;;;;5076468;28;19916;-76
2022/08/13 11:36:00;;;;;;;;;;;;;;;;;;5058656;28;19961;-78
2022/08/13 11:38:26;;;;;;;;;;;;;;;;;;5059600;28;19939;-77
2022/08/13 11:40:52;;;;;;;;;;;;;;;;;;5077085;28;20390;-77
2022/08/13 11:43:18;;;;;;;;;;;;;;;;;;5059110;28;19916;-77
2022/08/13 11:45:44;;;;;;;;;;;;;;;;;;5057760;28;20359;-77
2022/08/13 11:48:09;;;;;;;;;;;;;;;;;;5041695;28;19952;-77
2022/08/13 11:50:34;;;;;;;;;;;;;;;;;;5059497;28;19916;-77
2022/08/13 11:53:00;;;;;;;;;;;;;;;;;;5060112;28;19912;-80
2022/08/13 11:55:25;;;;;;;;;;;;;;;;;;5059701;28;19923;-78
2022/08/13 11:58:01;;;;;;;;;;;;;;;;;;5077807;28;19966;-79
2022/08/13 12:00:26;;;;;;;;;;;;;;;;;;5042177;28;20015;-79
2022/08/13 12:02:52;;;;;;;;;;;;;;;;;;5058947;28;20347;-78
2022/08/13 12:05:17;;;;;;;;;;;;;;;;;;5057911;28;20303;-77
2022/08/13 12:07:42;;;;;;;;;;;;;;;;;;5076263;28;19917;-78
2022/08/13 12:10:08;;;;;;;;;;;;;;;;;;5075847;28;19924;-78
2022/08/13 12:12:33;;;;;;;;;;;;;;;;;;5075908;28;19917;-78
2022/08/13 12:14:59;;;;;;;;;;;;;;;;;;5075948;28;19924;-78
2022/08/13 12:17:24;;;;;;;;;;;;;;;;;;5060018;28;20419;-78
2022/08/13 12:19:49;;;;;;;;;;;;;;;;;;5096016;28;19920;-77
2022/08/13 12:22:14;;;;;;;;;;;;;;;;;;5092886;28;19928;-77
2022/08/13 12:24:40;;;;;;;;;;;;;;;;;;5080443;28;20310;-77
2022/08/13 12:27:05;;;;;;;;;;;;;;;;;;5095753;28;19967;-78
2022/08/13 12:29:31;;;;;;;;;;;;;;;;;;5096711;28;19916;-78
2022/08/13 12:31:56;;;;;;;;;;;;;;;;;;5078070;28;19956;-79
2022/08/13 12:34:22;;;;;;;;;;;;;;;;;;5095814;28;20015;-77
2022/08/13 12:36:47;;;;;;;;;;;;;;;;;;5095128;28;19963;-77
2022/08/13 12:39:13;;;;;;;;;;;;;;;;;;5094750;28;19964;-77
2022/08/13 12:41:38;;;;;;;;;;;;;;;;;;5095077;28;19920;-77
2022/08/13 12:44:03;;;;;;;;;;;;;;;;;;5077068;28;19931;-77
2022/08/13 12:46:28;;;;;;;;;;;;;;;;;;5060402;28;20328;-77
2022/08/13 12:48:54;;;;;;;;;;;;;;;;;;5076934;28;19922;-75
2022/08/13 12:51:19;;;;;;;;;;;;;;;;;;5095250;28;19927;-76
2022/08/13 12:53:44;;;;;;;;;;;;;;;;;;5077232;28;19916;-77
2022/08/13 12:56:11;;;;;;;;;;;;;;;;;;5094439;28;19942;-77
2022/08/13 12:58:36;;;;;;;;;;;;;;;;;;5077130;28;19916;-77
2022/08/13 13:01:01;;;;;;;;;;;;;;;;;;5095426;28;19938;-78
2022/08/13 13:03:27;;;;;;;;;;;;;;;;;;5077510;28;19920;-79
2022/08/13 13:05:53;;;;;;;;;;;;;;;;;;5095217;28;19916;-78
2022/08/13 13:08:28;;;;;;;;;;;;;;;;;;5059264;28;19916;-77
2022/08/13 13:10:54;;;;;;;;;;;;;;;;;;5094028;28;19916;-77
2022/08/13 13:13:20;;;;;;;;;;;;;;;;;;5094457;28;19972;-77
2022/08/13 13:15:45;;;;;;;;;;;;;;;;;;5075947;28;19916;-77
2022/08/13 13:18:11;;;;;;;;;;;;;;;;;;5094556;28;19923;-77
2022/08/13 13:20:37;;;;;;;;;;;;;;;;;;5076981;28;19916;-78
2022/08/13 13:23:02;;;;;;;;;;;;;;;;;;5077120;28;20002;-78
2022/08/13 13:25:28;;;;;;;;;;;;;;;;;;5076624;28;19943;-78
2022/08/13 13:27:56;;;;;;;;;;;;;;;;;;5077902;28;19920;-78
2022/08/13 13:30:21;;;;;;;;;;;;;;;;;;5078497;28;19920;-78
2022/08/13 13:32:46;;;;;;;;;;;;;;;;;;5095700;28;19916;-78
2022/08/13 13:35:12;;;;;;;;;;;;;;;;;;5095129;28;20286;-78
2022/08/13 13:37:42;;;;;;;;;;;;;;;;;;5075865;28;19962;-77
2022/08/13 13:40:08;;;;;;;;;;;;;;;;;;5058978;28;19917;-77
2022/08/13 13:42:35;;;;;;;;;;;;;;;;;;5093513;28;20313;-78
2022/08/13 13:45:00;;;;;;;;;;;;;;;;;;5083107;28;20051;-78
2022/08/13 13:47:28;;;;;;;;;;;;;;;;;;5073430;28;19959;-78
2022/08/13 13:49:54;;;;;;;;;;;;;;;;;;5073402;28;19948;-77
2022/08/13 13:52:19;;;;;;;;;;;;;;;;;;5055536;28;19966;-77
2022/08/13 13:54:45;;;;;;;;;;;;;;;;;;5057584;28;19920;-78
2022/08/13 13:57:10;;;;;;;;;;;;;;;;;;5058326;28;19912;-78
2022/08/13 13:59:35;;;;;;;;;;;;;;;;;;5075935;28;19923;-78
2022/08/13 14:02:02;;;;;;;;;;;;;;;;;;5075265;28;20317;-77
2022/08/13 14:04:27;;;;;;;;;;;;;;;;;;5055369;28;20345;-77
2022/08/13 14:07:00;;;;;;;;;;;;;;;;;;5071538;28;19921;-77
2022/08/13 14:09:26;;;;;;;;;;;;;;;;;;5055602;28;19935;-77
2022/08/13 14:11:53;;;;;;;;;;;;;;;;;;5055357;28;19917;-77
2022/08/13 14:14:18;;;;;;;;;;;;;;;;;;5039105;28;20011;-77
2022/08/13 14:16:46;;;;;;;;;;;;;;;;;;5075122;28;19984;-77
2022/08/13 14:19:11;;;;;;;;;;;;;;;;;;5040503;28;20394;-77
2022/08/13 14:21:38;;;;;;;;;;;;;;;;;;5057734;28;19916;-78
2022/08/13 14:24:04;;;;;;;;;;;;;;;;;;5057113;28;19920;-78
2022/08/13 14:26:30;;;;;;;;;;;;;;;;;;5056147;28;20302;-76
2022/08/13 14:28:55;;;;;;;;;;;;;;;;;;5057274;28;19995;-77
2022/08/13 14:31:21;;;;;;;;;;;;;;;;;;5057143;28;19974;-78
2022/08/13 14:33:46;;;;;;;;;;;;;;;;;;5075178;28;19952;-78
2022/08/13 14:36:11;;;;;;;;;;;;;;;;;;5057146;28;19913;-79
2022/08/13 14:38:37;;;;;;;;;;;;;;;;;;5059674;28;19912;-78
2022/08/13 14:41:02;;;;;;;;;;;;;;;;;;5079875;28;19921;-77
2022/08/13 14:43:28;;;;;;;;;;;;;;;;;;5061796;28;20323;-78
2022/08/13 14:45:55;;;;;;;;;;;;;;;;;;5057549;28;19920;-78
2022/08/13 14:48:21;;;;;;;;;;;;;;;;;;5060379;28;19923;-79
2022/08/13 14:50:47;;;;;;;;;;;;;;;;;;5072654;28;19919;-79
2022/08/13 14:53:15;;;;;;;;;;;;;;;;;;5078369;28;19917;-78
2022/08/13 14:55:41;;;;;;;;;;;;;;;;;;5071492;28;20390;-77
2022/08/13 14:58:06;;;;;;;;;;;;;;;;;;5076608;28;20015;-78
2022/08/13 15:00:32;;;;;;;;;;;;;;;;;;5069561;28;20294;-78
2022/08/13 15:02:58;;;;;;;;;;;;;;;;;;5077035;28;20283;-79
2022/08/13 15:05:26;;;;;;;;;;;;;;;;;;5076898;28;19912;-78
2022/08/13 15:07:51;;;;;;;;;;;;;;;;;;5072553;28;19913;-78
2022/08/13 15:10:18;;;;;;;;;;;;;;;;;;5077998;28;19916;-78
2022/08/13 15:12:44;;;;;;;;;;;;;;;;;;5071405;28;20014;-78
2022/08/13 15:15:13;;;;;;;;;;;;;;;;;;5060201;28;19963;-78
2022/08/13 15:17:43;;;;;;;;;;;;;;;;;;5050966;28;20057;-78
2022/08/13 15:20:09;;;;;;;;;;;;;;;;;;5057043;28;19947;-78
2022/08/13 15:22:34;;;;;;;;;;;;;;;;;;5033068;28;19992;-78
2022/08/13 15:25:00;;;;;;;;;;;;;;;;;;5058828;28;19955;-77
2022/08/13 15:27:29;;;;;;;;;;;;;;;;;;5056889;28;20003;-78
2022/08/13 15:29:55;;;;;;;;;;;;;;;;;;5058259;28;19960;-78
2022/08/13 15:32:20;;;;;;;;;;;;;;;;;;5057122;28;19966;-78
2022/08/13 15:34:53;;;;;;;;;;;;;;;;;;5050031;28;19917;-80
2022/08/13 15:37:18;;;;;;;;;;;;;;;;;;5037520;28;20291;-80
2022/08/13 15:39:43;;;;;;;;;;;;;;;;;;5031801;28;19912;-79
2022/08/13 15:42:46;;;;;;;;;;;;;;;;;;5067212;28;19927;-79
2022/08/13 15:45:13;;;;;;;;;;;;;;;;;;5065017;28;19924;-79
2022/08/13 15:47:40;;;;;;;;;;;;;;;;;;5057267;28;19917;-79
2022/08/13 15:50:06;;;;;;;;;;;;;;;;;;5057086;28;20003;-79
2022/08/13 15:52:32;;;;;;;;;;;;;;;;;;5057312;28;20264;-78
2022/08/13 15:54:58;;;;;;;;;;;;;;;;;;5040711;28;19919;-80
2022/08/13 15:57:23;;;;;;;;;;;;;;;;;;5057432;28;19912;-77
2022/08/13 15:59:48;;;;;;;;;;;;;;;;;;5075026;28;20336;-78
2022/08/13 16:02:31;;;;;;;;;;;;;;;;;;5026889;28;20214;-80
2022/08/13 16:04:57;;;;;;;;;;;;;;;;;;5057318;28;19917;-80
2022/08/13 16:07:23;;;;;;;;;;;;;;;;;;5074921;28;19969;-79
2022/08/13 16:09:49;;;;;;;;;;;;;;;;;;5057134;28;19916;-78
2022/08/13 16:12:15;;;;;;;;;;;;;;;;;;5074806;28;19924;-80
2022/08/13 16:14:41;;;;;;;;;;;;;;;;;;5075060;28;19963;-78
2022/08/13 16:17:07;;;;;;;;;;;;;;;;;;5056822;28;19947;-77
2022/08/13 16:19:34;;;;;;;;;;;;;;;;;;5040142;28;19912;-78
2022/08/13 16:21:59;;;;;;;;;;;;;;;;;;5056643;28;20016;-79
2022/08/13 16:24:25;;;;;;;;;;;;;;;;;;5057217;28;19971;-79
2022/08/13 16:26:50;;;;;;;;;;;;;;;;;;5040312;28;20275;-77
2022/08/13 16:29:16;;;;;;;;;;;;;;;;;;5056494;28;19919;-79
2022/08/13 16:31:42;;;;;;;;;;;;;;;;;;5057120;28;19916;-77
2022/08/13 16:34:08;;;;;;;;;;;;;;;;;;5037646;28;20344;-78
2022/08/13 16:36:35;;;;;;;;;;;;;;;;;;5040047;28;19912;-78
2022/08/13 16:39:03;;;;;;;;;;;;;;;;;;5040016;28;20466;-77
2022/08/13 16:41:28;;;;;;;;;;;;;;;;;;5057014;28;20007;-77
2022/08/13 16:43:54;;;;;;;;;;;;;;;;;;5057716;28;20355;-77
2022/08/13 16:46:21;;;;;;;;;;;;;;;;;;5056401;28;19974;-76
2022/08/13 16:48:47;;;;;;;;;;;;;;;;;;5042269;28;19932;-77
2022/08/13 16:51:12;;;;;;;;;;;;;;;;;;5093101;28;19913;-76
2022/08/13 16:53:38;;;;;;;;;;;;;;;;;;5114821;28;19916;-75
2022/08/13 16:56:05;;;;;;;;;;;;;;;;;;5090816;28;19924;-77
2022/08/13 16:58:30;;;;;;;;;;;;;;;;;;5057788;28;19912;-78
2022/08/13 17:00:59;;;;;;;;;;;;;;;;;;5073087;28;19916;-77
2022/08/13 17:11:36;;;;;;;;;;;;;;;;;;5095283;28;19938;-78